Time;durP1;ratioP1;P1;durP2;ratioP2;P2;SDS_P1;SDS_P2;PMS_P1;PMS_P2;Temp;Humidity;BMP_temperature;BMP_pressure;BME280_temperature;BME280_humidity;BME280_pressure;Samples;Min_cycle;Max_cycle;Signal;HPM_P1;HPM_P2
2021/09/09 00:02:00;;;;;;;20.08;11.60;;;;;;;12.87;100.00;97688.88;4974612;28;20049;-80
2021/09/09 00:04:27;;;;;;;18.45;11.93;;;;;;;12.43;100.00;97695.63;4958876;28;20115;-80
2021/09/09 00:06:53;;;;;;;26.27;12.77;;;;;;;12.58;100.00;97688.84;5000426;23;20065;-81
2021/09/09 00:09:20;;;;;;;21.63;11.98;;;;;;;12.27;100.00;97694.56;5033570;28;20061;-80
2021/09/09 00:11:48;;;;;;;22.48;12.00;;;;;;;12.38;100.00;97690.38;5014317;28;20045;-81
2021/09/09 00:14:14;;;;;;;24.67;13.73;;;;;;;12.43;100.00;97692.91;5036717;28;20481;-83
2021/09/09 00:16:41;;;;;;;18.67;12.27;;;;;;;12.10;100.00;97694.63;5029033;28;20100;-81
2021/09/09 00:19:08;;;;;;;25.33;13.52;;;;;;;12.13;100.00;97687.75;4994983;28;20042;-82
2021/09/09 00:21:34;;;;;;;23.88;13.57;;;;;;;12.12;100.00;97686.13;5031181;22;20045;-82
2021/09/09 00:24:01;;;;;;;24.75;13.27;;;;;;;12.07;100.00;97686.31;5017886;28;20046;-82
2021/09/09 00:26:27;;;;;;;27.50;14.48;;;;;;;11.99;100.00;97677.06;5002024;28;20089;-83
2021/09/09 00:28:54;;;;;;;24.38;13.80;;;;;;;12.04;100.00;97693.19;5000441;28;20050;-83
2021/09/09 00:31:21;;;;;;;21.30;12.98;;;;;;;12.01;100.00;97691.09;5017696;28;20502;-83
2021/09/09 00:33:47;;;;;;;19.40;13.68;;;;;;;11.89;100.00;97690.97;5017129;28;20115;-83
2021/09/09 00:36:15;;;;;;;22.90;13.50;;;;;;;11.79;100.00;97694.78;5018250;28;20105;-83
2021/09/09 00:38:41;;;;;;;22.08;13.32;;;;;;;11.78;100.00;97687.00;5019164;28;20052;-83
2021/09/09 00:41:08;;;;;;;22.10;13.10;;;;;;;11.70;100.00;97680.47;5017655;28;20178;-83
2021/09/09 00:43:35;;;;;;;21.17;13.80;;;;;;;11.69;100.00;97689.69;4998131;28;20054;-83
2021/09/09 00:46:02;;;;;;;21.60;13.93;;;;;;;11.70;100.00;97685.88;5017554;28;20041;-83
2021/09/09 00:48:29;;;;;;;27.92;14.25;;;;;;;11.69;100.00;97680.78;5018242;28;20076;-84
2021/09/09 00:50:55;;;;;;;29.05;13.48;;;;;;;11.73;100.00;97687.97;5018740;28;20042;-83
2021/09/09 00:53:22;;;;;;;21.83;13.50;;;;;;;11.74;100.00;97670.56;5000616;28;20057;-83
2021/09/09 00:55:49;;;;;;;21.98;13.13;;;;;;;11.85;100.00;97684.59;4999531;28;20126;-82
2021/09/09 00:58:17;;;;;;;20.63;12.85;;;;;;;11.84;100.00;97680.28;5017000;28;20061;-82
2021/09/09 01:00:43;;;;;;;24.02;13.43;;;;;;;11.77;100.00;97686.19;4982871;28;20212;-82
2021/09/09 01:03:10;;;;;;;20.80;13.90;;;;;;;11.69;100.00;97687.00;5016607;28;20049;-82
2021/09/09 01:05:38;;;;;;;21.40;13.57;;;;;;;11.72;100.00;97683.63;5018433;28;20080;-82
2021/09/09 01:08:05;;;;;;;22.35;13.50;;;;;;;11.61;100.00;97674.22;5017949;28;20042;-82
2021/09/09 01:10:36;;;;;;;22.00;13.93;;;;;;;11.63;100.00;97671.19;5019090;28;20068;-82
2021/09/09 01:13:08;;;;;;;22.70;13.00;;;;;;;11.63;100.00;97680.13;5018852;28;20049;-82
2021/09/09 01:15:43;;;;;;;21.30;13.95;;;;;;;11.62;100.00;97680.44;5018501;28;20045;-81
2021/09/09 01:18:12;;;;;;;26.83;13.67;;;;;;;11.55;100.00;97694.47;5018006;28;20052;-82
2021/09/09 01:20:40;;;;;;;22.23;14.30;;;;;;;11.47;100.00;97689.84;5001192;28;20030;-82
2021/09/09 01:23:09;;;;;;;22.48;13.70;;;;;;;11.38;100.00;97678.19;5018742;28;20513;-82
2021/09/09 01:25:36;;;;;;;19.98;12.93;;;;;;;11.36;100.00;97698.59;5019144;28;20104;-82
2021/09/09 01:28:03;;;;;;;26.33;14.32;;;;;;;11.42;100.00;97697.34;5000920;28;20069;-83
2021/09/09 01:30:30;;;;;;;20.60;14.07;;;;;;;11.42;100.00;97690.00;5018908;28;20038;-83
2021/09/09 01:32:59;;;;;;;22.88;13.57;;;;;;;11.41;100.00;97699.25;5019267;28;20068;-83
2021/09/09 01:35:26;;;;;;;23.55;14.38;;;;;;;11.30;100.00;97697.97;5019574;28;20049;-83
2021/09/09 01:37:53;;;;;;;21.83;14.30;;;;;;;11.29;100.00;97693.66;4984892;28;20125;-82
2021/09/09 01:40:30;;;;;;;24.60;14.77;;;;;;;11.33;100.00;97708.16;5000233;28;20152;-83
2021/09/09 01:42:58;;;;;;;23.75;15.02;;;;;;;11.28;100.00;97709.13;5017972;28;20068;-83
2021/09/09 01:45:26;;;;;;;28.77;15.70;;;;;;;11.24;100.00;97694.63;5017637;28;20042;-83
2021/09/09 01:47:53;;;;;;;26.52;15.02;;;;;;;11.17;100.00;97691.56;5019644;28;20103;-83
2021/09/09 01:50:20;;;;;;;23.27;14.95;;;;;;;11.15;100.00;97706.53;5001993;28;20056;-83
2021/09/09 01:52:47;;;;;;;23.65;14.27;;;;;;;11.22;100.00;97705.00;5021029;28;20144;-82
2021/09/09 01:55:13;;;;;;;24.67;15.32;;;;;;;11.27;100.00;97698.63;5003172;28;20045;-83
2021/09/09 01:57:41;;;;;;;30.55;15.38;;;;;;;11.25;100.00;97706.28;5018346;28;20076;-83
2021/09/09 02:00:08;;;;;;;23.98;14.50;;;;;;;11.20;100.00;97692.88;5018768;28;20062;-83
2021/09/09 02:02:36;;;;;;;23.45;16.25;;;;;;;11.15;100.00;97701.13;5019088;28;20046;-82
2021/09/09 02:05:05;;;;;;;26.73;15.15;;;;;;;11.20;100.00;97701.78;5018129;28;20082;-82
2021/09/09 02:07:32;;;;;;;22.83;14.68;;;;;;;11.28;100.00;97700.19;5003359;28;20052;-83
2021/09/09 02:10:00;;;;;;;21.83;14.90;;;;;;;11.30;100.00;97676.31;5020318;28;20391;-83
2021/09/09 02:12:27;;;;;;;22.77;15.10;;;;;;;11.42;100.00;97681.88;5018962;28;20050;-83
2021/09/09 02:14:54;;;;;;;21.13;15.38;;;;;;;11.50;100.00;97672.16;5002333;28;20072;-82
2021/09/09 02:17:21;;;;;;;24.10;16.10;;;;;;;11.62;100.00;97672.28;5020329;28;20049;-82
2021/09/09 02:19:47;;;;;;;25.95;15.40;;;;;;;11.99;100.00;97674.34;5020947;28;20065;-83
2021/09/09 02:22:14;;;;;;;23.38;15.43;;;;;;;12.11;100.00;97671.75;5024401;28;20056;-82
2021/09/09 02:24:46;;;;;;;24.85;15.07;;;;;;;12.13;100.00;97666.03;5020867;28;20046;-83
2021/09/09 02:27:17;;;;;;;22.70;16.25;;;;;;;12.05;100.00;97673.06;5020125;28;20102;-83
2021/09/09 02:29:44;;;;;;;25.08;17.05;;;;;;;12.16;100.00;97671.59;5001615;28;20086;-83
2021/09/09 02:32:11;;;;;;;24.27;15.60;;;;;;;12.24;100.00;97661.81;5017452;28;20050;-82
2021/09/09 02:34:38;;;;;;;22.52;15.43;;;;;;;12.29;100.00;97664.34;5013857;28;20076;-83
2021/09/09 02:37:05;;;;;;;27.02;15.10;;;;;;;12.24;100.00;97664.53;5001189;28;20085;-83
2021/09/09 02:39:32;;;;;;;27.55;15.98;;;;;;;11.70;100.00;97657.97;5000360;28;20053;-81
2021/09/09 02:41:59;;;;;;;27.95;16.30;;;;;;;11.70;100.00;97658.75;5003435;28;20045;-83
2021/09/09 02:44:26;;;;;;;25.33;15.18;;;;;;;11.69;100.00;97664.53;5021754;28;20062;-83
2021/09/09 02:46:53;;;;;;;25.48;15.50;;;;;;;11.69;100.00;97659.09;5017655;28;20076;-83
2021/09/09 02:49:20;;;;;;;26.90;15.70;;;;;;;11.68;100.00;97661.00;5000249;28;20122;-83
2021/09/09 02:51:46;;;;;;;23.92;16.13;;;;;;;11.85;100.00;97668.31;5000108;28;20069;-83
2021/09/09 02:54:16;;;;;;;29.23;17.17;;;;;;;11.79;100.00;97661.47;5000224;28;20045;-82
2021/09/09 02:56:43;;;;;;;24.30;16.02;;;;;;;11.87;100.00;97666.09;5016424;28;20132;-82
2021/09/09 02:59:09;;;;;;;29.88;15.85;;;;;;;11.90;100.00;97664.66;4999789;28;20057;-82
2021/09/09 03:01:36;;;;;;;22.92;15.88;;;;;;;11.83;100.00;97660.50;5019484;28;20249;-82
2021/09/09 03:04:03;;;;;;;29.40;16.60;;;;;;;11.84;100.00;97658.59;5016658;28;20116;-82
2021/09/09 03:06:31;;;;;;;28.50;15.98;;;;;;;11.90;100.00;97657.28;4998098;28;20052;-83
2021/09/09 03:08:58;;;;;;;27.48;16.50;;;;;;;11.87;100.00;97661.44;5001565;28;20081;-82
2021/09/09 03:11:28;;;;;;;24.27;15.75;;;;;;;11.86;100.00;97651.72;5017031;28;20061;-82
2021/09/09 03:13:55;;;;;;;26.83;16.55;;;;;;;11.87;100.00;97649.81;5014660;28;20080;-82
2021/09/09 03:16:22;;;;;;;23.60;16.50;;;;;;;11.89;100.00;97650.28;5018591;28;20048;-83
2021/09/09 03:18:48;;;;;;;24.67;15.95;;;;;;;11.86;100.00;97645.50;4999876;28;20084;-80
2021/09/09 03:21:15;;;;;;;25.98;17.08;;;;;;;11.88;100.00;97637.81;5017306;28;20042;-83
2021/09/09 03:23:42;;;;;;;29.48;17.77;;;;;;;12.18;100.00;97653.06;5016785;28;20107;-82
2021/09/09 03:26:09;;;;;;;28.55;18.30;;;;;;;11.83;100.00;97648.84;5000905;28;20057;-81
2021/09/09 03:28:36;;;;;;;31.52;18.50;;;;;;;11.81;100.00;97635.63;5019942;28;20112;-82
2021/09/09 03:31:02;;;;;;;26.80;17.67;;;;;;;11.83;100.00;97649.66;5019413;28;20162;-82
2021/09/09 03:33:29;;;;;;;28.95;17.77;;;;;;;11.81;100.00;97634.81;5000164;28;20054;-82
2021/09/09 03:35:56;;;;;;;24.33;16.30;;;;;;;11.85;100.00;97641.19;5017778;28;20064;-82
2021/09/09 03:38:22;;;;;;;24.35;16.27;;;;;;;11.83;100.00;97635.28;5018418;28;20088;-82
2021/09/09 03:40:49;;;;;;;29.40;18.15;;;;;;;11.75;100.00;97634.19;5017673;28;20520;-83
2021/09/09 03:43:16;;;;;;;32.80;19.10;;;;;;;11.83;100.00;97638.00;4999402;28;20125;-83
2021/09/09 03:45:43;;;;;;;35.55;19.80;;;;;;;11.82;100.00;97629.06;5018865;28;20057;-83
2021/09/09 03:48:09;;;;;;;32.42;18.73;;;;;;;11.84;100.00;97631.47;5000532;28;20037;-82
2021/09/09 03:50:36;;;;;;;31.33;18.33;;;;;;;11.83;100.00;97635.28;4983458;28;20090;-83
2021/09/09 03:53:03;;;;;;;30.63;17.60;;;;;;;11.75;100.00;97627.97;4995294;28;20046;-83
2021/09/09 03:55:29;;;;;;;31.98;17.17;;;;;;;11.75;100.00;97622.53;4995948;28;20042;-82
2021/09/09 03:57:58;;;;;;;31.23;18.38;;;;;;;11.77;100.00;97615.66;5013503;28;20050;-83
2021/09/09 04:00:24;;;;;;;27.13;16.92;;;;;;;11.77;100.00;97617.59;4995441;28;20045;-83
2021/09/09 04:02:51;;;;;;;26.27;17.10;;;;;;;11.67;100.00;97621.41;5013731;28;20038;-84
2021/09/09 04:05:18;;;;;;;29.60;16.95;;;;;;;11.62;100.00;97613.44;4994848;28;20046;-83
2021/09/09 04:07:44;;;;;;;29.10;16.20;;;;;;;11.63;100.00;97619.66;5013753;28;20084;-84
2021/09/09 04:10:11;;;;;;;24.63;16.05;;;;;;;11.57;100.00;97605.47;5030528;28;20057;-83
2021/09/09 04:12:38;;;;;;;25.98;15.95;;;;;;;11.58;100.00;97619.84;5014283;28;20042;-83
2021/09/09 04:15:05;;;;;;;31.27;17.65;;;;;;;11.55;100.00;97615.06;4997578;28;20049;-80
2021/09/09 04:17:33;;;;;;;31.58;18.38;;;;;;;11.58;100.00;97615.22;5029039;28;20103;-79
2021/09/09 04:20:01;;;;;;;34.67;20.25;;;;;;;11.65;100.00;97622.84;5010886;28;20120;-79
2021/09/09 04:22:30;;;;;;;32.95;19.30;;;;;;;11.68;100.00;97620.34;5031202;28;20212;-79
2021/09/09 04:24:58;;;;;;;32.30;19.10;;;;;;;11.64;100.00;97613.91;5030927;28;20053;-79
2021/09/09 04:27:25;;;;;;;32.20;19.45;;;;;;;11.70;100.00;97615.38;5029709;28;20064;-79
2021/09/09 04:29:52;;;;;;;35.88;20.30;;;;;;;11.80;100.00;97611.50;5010565;28;20045;-80
2021/09/09 04:32:18;;;;;;;33.75;19.05;;;;;;;11.81;100.00;97610.41;5022630;28;20379;-78
2021/09/09 04:34:45;;;;;;;28.73;18.25;;;;;;;11.86;100.00;97615.66;5020191;28;20041;-79
2021/09/09 04:37:11;;;;;;;27.52;16.95;;;;;;;11.86;100.00;97613.75;5018240;28;20417;-79
2021/09/09 04:39:38;;;;;;;26.73;16.23;;;;;;;11.81;100.00;97602.28;4994269;28;20077;-79
2021/09/09 04:42:05;;;;;;;27.88;16.65;;;;;;;11.80;100.00;97604.19;4989508;28;20042;-80
2021/09/09 04:44:31;;;;;;;26.77;15.32;;;;;;;11.88;100.00;97603.38;4990245;28;20069;-79
2021/09/09 04:46:58;;;;;;;32.08;16.42;;;;;;;12.00;100.00;97610.03;4986606;28;20376;-79
2021/09/09 04:49:24;;;;;;;32.63;15.32;;;;;;;12.17;100.00;97610.78;4995201;28;20183;-79
2021/09/09 04:51:52;;;;;;;31.48;15.68;;;;;;;12.34;100.00;97609.88;5008140;28;20075;-79
2021/09/09 04:54:19;;;;;;;26.95;14.43;;;;;;;12.40;100.00;97611.31;5007925;28;20046;-79
2021/09/09 04:56:45;;;;;;;21.67;13.25;;;;;;;12.41;100.00;97602.06;5005384;28;20211;-84
2021/09/09 04:59:12;;;;;;;24.10;14.27;;;;;;;12.39;100.00;97598.84;5019331;28;20070;-83
2021/09/09 05:01:39;;;;;;;18.45;12.95;;;;;;;12.36;100.00;97611.16;5014993;28;20080;-83
2021/09/09 05:04:05;;;;;;;21.45;13.90;;;;;;;12.29;100.00;97602.72;5001078;28;20096;-84
2021/09/09 05:06:32;;;;;;;27.02;13.75;;;;;;;12.36;100.00;97603.00;5017135;28;20108;-83
2021/09/09 05:08:59;;;;;;;26.60;14.05;;;;;;;12.42;100.00;97604.44;5020862;28;20061;-83
2021/09/09 05:11:25;;;;;;;21.08;13.63;;;;;;;12.49;100.00;97598.50;4997105;28;20056;-80
2021/09/09 05:13:52;;;;;;;19.65;13.15;;;;;;;12.54;100.00;97598.31;4990336;28;20043;-82
2021/09/09 05:16:19;;;;;;;20.80;12.98;;;;;;;12.52;100.00;97586.19;4990508;28;20054;-82
2021/09/09 05:18:45;;;;;;;21.83;14.05;;;;;;;12.57;100.00;97591.44;5005939;28;20128;-82
2021/09/09 05:21:12;;;;;;;22.15;13.13;;;;;;;12.85;100.00;97590.56;5011459;28;20256;-82
2021/09/09 05:23:39;;;;;;;26.38;13.90;;;;;;;12.94;100.00;97587.81;5013326;28;20060;-83
2021/09/09 05:26:06;;;;;;;22.13;13.02;;;;;;;12.97;100.00;97582.50;4997510;28;20037;-82
2021/09/09 05:28:32;;;;;;;22.45;13.57;;;;;;;13.04;100.00;97579.25;5012476;28;20046;-82
2021/09/09 05:30:59;;;;;;;22.25;13.52;;;;;;;13.16;100.00;97584.00;5011345;28;20090;-83
2021/09/09 05:33:26;;;;;;;22.75;13.55;;;;;;;12.97;100.00;97576.28;5011702;28;20050;-82
2021/09/09 05:35:52;;;;;;;21.75;12.43;;;;;;;13.22;100.00;97571.78;5011825;28;20475;-82
2021/09/09 05:38:19;;;;;;;19.50;12.13;;;;;;;13.43;100.00;97583.44;5012058;28;20049;-82
2021/09/09 05:40:49;;;;;;;20.75;11.90;;;;;;;13.34;100.00;97572.66;5011206;28;20049;-82
2021/09/09 05:43:17;;;;;;;27.30;11.95;;;;;;;13.34;100.00;97574.56;5011154;28;20057;-83
2021/09/09 05:45:43;;;;;;;25.23;11.82;;;;;;;13.89;100.00;97572.22;5011405;28;20053;-82
2021/09/09 05:48:10;;;;;;;19.17;12.25;;;;;;;14.04;100.00;97573.50;5011000;28;20443;-82
2021/09/09 05:50:37;;;;;;;24.15;11.90;;;;;;;14.13;100.00;97574.19;5011976;28;20064;-83
2021/09/09 05:53:03;;;;;;;21.05;12.38;;;;;;;14.24;100.00;97569.91;5014778;28;20128;-81
2021/09/09 05:55:31;;;;;;;25.60;12.45;;;;;;;14.37;100.00;97576.97;4993800;28;20038;-82
2021/09/09 05:57:58;;;;;;;20.50;12.25;;;;;;;14.44;100.00;97581.84;5011118;28;20155;-82
2021/09/09 06:00:25;;;;;;;25.45;11.88;;;;;;;14.58;100.00;97582.28;5011209;28;20042;-82
2021/09/09 06:02:52;;;;;;;26.45;11.68;;;;;;;14.71;100.00;97567.53;5011488;28;20387;-81
2021/09/09 06:05:19;;;;;;;29.75;11.77;;;;;;;14.77;100.00;97571.59;4993565;28;20115;-83
2021/09/09 06:07:46;;;;;;;26.10;11.00;;;;;;;14.93;100.00;97572.47;5034644;23;20058;-80
2021/09/09 06:10:12;;;;;;;22.77;10.23;;;;;;;15.20;100.00;97571.69;5013398;28;20529;-78
2021/09/09 06:12:39;;;;;;;23.88;10.65;;;;;;;15.34;100.00;97563.94;5013334;28;20494;-78
2021/09/09 06:15:06;;;;;;;23.35;10.50;;;;;;;15.59;100.00;97565.44;4997080;28;20049;-80
2021/09/09 06:17:33;;;;;;;23.15;10.90;;;;;;;15.69;100.00;97560.63;5014172;28;20072;-80
2021/09/09 06:20:00;;;;;;;21.63;9.90;;;;;;;15.79;100.00;97555.44;4996644;28;20042;-79
2021/09/09 06:22:27;;;;;;;19.30;10.13;;;;;;;15.90;100.00;97555.69;5015915;28;20578;-80
2021/09/09 06:24:53;;;;;;;18.75;9.00;;;;;;;15.99;100.00;97562.59;4996769;28;20057;-78
2021/09/09 06:27:20;;;;;;;25.20;9.18;;;;;;;16.17;100.00;97566.56;5012783;28;20042;-77
2021/09/09 06:29:46;;;;;;;19.45;9.65;;;;;;;16.25;100.00;97561.28;5013031;28;20505;-77
2021/09/09 06:32:13;;;;;;;18.77;9.82;;;;;;;16.40;100.00;97565.94;5013249;28;20129;-79
2021/09/09 06:34:40;;;;;;;18.95;9.20;;;;;;;16.51;100.00;97562.31;5013092;28;20038;-77
2021/09/09 06:37:06;;;;;;;15.50;9.00;;;;;;;16.64;100.00;97569.28;5018930;28;20046;-80
2021/09/09 06:39:33;;;;;;;26.38;9.10;;;;;;;16.71;100.00;97571.38;5028853;28;20100;-79
2021/09/09 06:42:00;;;;;;;29.38;9.55;;;;;;;17.34;100.00;97564.53;5028359;28;20265;-78
2021/09/09 06:44:26;;;;;;;21.52;9.15;;;;;;;17.48;100.00;97557.75;5014681;28;20057;-79
2021/09/09 06:46:53;;;;;;;17.35;8.73;;;;;;;17.71;100.00;97564.09;4996582;28;20050;-79
2021/09/09 06:49:20;;;;;;;24.20;9.13;;;;;;;17.84;100.00;97560.06;4996410;28;20520;-79
2021/09/09 06:51:46;;;;;;;21.95;9.00;;;;;;;17.53;100.00;97571.19;5014246;28;20058;-80
2021/09/09 06:54:15;;;;;;;28.60;8.98;;;;;;;17.56;100.00;97554.84;4997111;28;20059;-80
2021/09/09 06:56:42;;;;;;;20.55;7.90;;;;;;;17.18;100.00;97561.09;5014034;28;20050;-80
2021/09/09 06:59:08;;;;;;;16.77;8.02;;;;;;;17.25;100.00;97561.25;5008541;28;20046;-80
2021/09/09 07:01:35;;;;;;;20.05;8.10;;;;;;;17.45;100.00;97551.06;5011943;28;20057;-77
2021/09/09 07:04:03;;;;;;;16.58;7.65;;;;;;;17.63;100.00;97563.19;5013618;28;20046;-78
2021/09/09 07:06:29;;;;;;;13.63;7.57;;;;;;;17.56;100.00;97540.34;5013715;28;20046;-79
2021/09/09 07:08:56;;;;;;;16.30;7.68;;;;;;;17.83;100.00;97567.47;4995422;28;20069;-81
2021/09/09 07:11:23;;;;;;;18.52;7.55;;;;;;;17.92;100.00;97561.78;5015244;28;20058;-77
2021/09/09 07:13:50;;;;;;;17.00;8.68;;;;;;;18.01;100.00;97557.63;5013750;28;20086;-80
2021/09/09 07:16:16;;;;;;;13.50;7.95;;;;;;;18.28;100.00;97569.44;5013952;28;20053;-79
2021/09/09 07:18:43;;;;;;;15.55;7.70;;;;;;;18.36;100.00;97562.94;5015805;28;20520;-78
2021/09/09 07:21:10;;;;;;;19.17;7.85;;;;;;;18.63;100.00;97569.25;5014090;28;20045;-79
2021/09/09 07:23:40;;;;;;;16.23;8.20;;;;;;;18.77;100.00;97574.16;4995713;28;20050;-79
2021/09/09 07:26:06;;;;;;;18.35;7.30;;;;;;;18.94;100.00;97568.94;4996139;28;20053;-78
2021/09/09 07:28:33;;;;;;;13.55;6.95;;;;;;;19.07;100.00;97575.75;4995487;28;20045;-79
2021/09/09 07:31:00;;;;;;;13.15;6.50;;;;;;;19.27;100.00;97568.19;5013388;28;20054;-78
2021/09/09 07:33:26;;;;;;;13.32;6.70;;;;;;;19.54;100.00;97577.97;4996299;28;20149;-79
2021/09/09 07:36:01;;;;;;;15.32;6.50;;;;;;;19.74;100.00;97556.63;5014537;28;20049;-79
2021/09/09 07:38:35;;;;;;;11.63;6.22;;;;;;;19.92;100.00;97558.34;5018134;28;20038;-80
2021/09/09 07:41:03;;;;;;;14.77;6.45;;;;;;;19.75;100.00;97556.22;4995507;28;20049;-79
2021/09/09 07:43:36;;;;;;;16.88;6.38;;;;;;;19.82;100.00;97561.78;5010340;28;20046;-81
2021/09/09 07:46:05;;;;;;;14.57;6.45;;;;;;;19.68;100.00;97511.41;4978066;28;20052;-79
2021/09/09 07:48:32;;;;;;;9.73;6.47;;;;;;;19.92;100.00;97558.34;4992749;28;20133;-80
2021/09/09 07:50:58;;;;;;;13.82;6.53;;;;;;;20.17;100.00;97561.34;4993527;28;20053;-78
2021/09/09 07:53:25;;;;;;;11.75;6.63;;;;;;;20.40;100.00;97566.69;5012962;28;20108;-79
2021/09/09 07:55:51;;;;;;;13.70;7.68;;;;;;;20.53;100.00;97565.22;5014294;28;20044;-78
2021/09/09 07:58:18;;;;;;;13.07;6.22;;;;;;;20.62;100.00;97564.91;5012688;28;20045;-79
2021/09/09 08:00:45;;;;;;;15.13;6.40;;;;;;;20.66;100.00;97557.44;5014247;28;20108;-79
2021/09/09 08:03:12;;;;;;;14.05;6.75;;;;;;;20.92;100.00;97557.25;5012289;28;20046;-78
2021/09/09 08:05:39;;;;;;;11.82;5.93;;;;;;;21.07;100.00;97554.22;5011689;28;20407;-78
2021/09/09 08:08:06;;;;;;;11.38;6.40;;;;;;;21.25;100.00;97557.03;5013044;28;20048;-78
2021/09/09 08:10:33;;;;;;;13.18;5.97;;;;;;;21.44;100.00;97570.53;5012890;28;20057;-78
2021/09/09 08:13:00;;;;;;;14.25;6.53;;;;;;;21.49;100.00;97555.56;4994226;28;20104;-77
2021/09/09 08:15:27;;;;;;;11.27;5.97;;;;;;;21.69;100.00;97568.63;4996863;28;20054;-79
2021/09/09 08:17:54;;;;;;;20.83;8.13;;;;;;;21.90;100.00;97567.94;5019539;28;20045;-79
2021/09/09 08:20:21;;;;;;;14.52;6.68;;;;;;;21.94;100.00;97570.72;5017464;28;20042;-79
2021/09/09 08:22:47;;;;;;;12.77;6.57;;;;;;;21.99;100.00;97584.13;5018820;28;20050;-79
2021/09/09 08:25:17;;;;;;;10.30;5.88;;;;;;;22.21;100.00;97569.97;5018254;28;20049;-78
2021/09/09 08:27:43;;;;;;;9.80;5.68;;;;;;;22.34;100.00;97565.63;4979031;28;20042;-80
2021/09/09 08:30:10;;;;;;;13.90;6.13;;;;;;;22.49;100.00;97568.38;5011412;28;20103;-79
2021/09/09 08:32:37;;;;;;;13.10;5.90;;;;;;;22.77;100.00;97584.97;4994600;28;20126;-78
2021/09/09 08:35:05;;;;;;;19.15;6.20;;;;;;;22.85;100.00;97579.03;5012657;28;20077;-79
2021/09/09 08:37:34;;;;;;;14.00;6.00;;;;;;;22.77;100.00;97579.44;5012339;28;20041;-79
2021/09/09 08:40:01;;;;;;;9.80;5.93;;;;;;;22.64;99.60;97575.50;4993706;28;20148;-79
2021/09/09 08:42:27;;;;;;;12.48;6.22;;;;;;;23.04;100.00;97577.03;4993590;28;20049;-79
2021/09/09 08:44:54;;;;;;;13.27;5.60;;;;;;;23.21;100.00;97568.72;5011209;28;20411;-78
2021/09/09 08:47:24;;;;;;;10.05;5.32;;;;;;;23.18;100.00;97560.41;5010521;28;20042;-79
2021/09/09 08:49:50;;;;;;;17.55;5.97;;;;;;;23.17;93.46;97576.22;5011088;28;20046;-78
2021/09/09 08:52:17;;;;;;;13.60;5.80;;;;;;;23.37;97.17;97560.00;5010470;28;20057;-79
2021/09/09 08:54:45;;;;;;;10.77;6.10;;;;;;;23.46;100.00;97572.19;4992965;28;20088;-78
2021/09/09 08:57:12;;;;;;;17.08;5.82;;;;;;;23.60;96.37;97570.56;4993019;28;20218;-79
2021/09/09 08:59:38;;;;;;;14.48;5.50;;;;;;;23.82;100.00;97569.28;5011751;28;20045;-79
2021/09/09 09:02:07;;;;;;;16.38;5.97;;;;;;;23.77;92.20;97569.72;4993850;28;20042;-78
2021/09/09 09:04:36;;;;;;;10.27;5.15;;;;;;;23.96;94.07;97567.22;5011958;28;20097;-79
2021/09/09 09:07:06;;;;;;;11.60;5.68;;;;;;;24.05;96.14;97567.53;5012055;28;20112;-79
2021/09/09 09:09:34;;;;;;;10.82;5.18;;;;;;;24.01;85.00;97566.78;5011590;28;20252;-79
2021/09/09 09:12:05;;;;;;;14.38;5.60;;;;;;;24.27;79.84;97564.66;5010582;28;20128;-79
2021/09/09 09:14:31;;;;;;;11.10;5.47;;;;;;;24.38;80.00;97571.72;5012018;28;20038;-79
2021/09/09 09:17:01;;;;;;;14.85;5.63;;;;;;;24.52;84.80;97566.03;4994255;28;20084;-78
2021/09/09 09:19:41;;;;;;;19.60;5.70;;;;;;;24.63;82.28;97566.75;5010934;28;20085;-79
2021/09/09 09:22:12;;;;;;;11.15;5.30;;;;;;;24.80;60.89;97561.50;5011526;28;20080;-79
2021/09/09 09:24:47;;;;;;;13.75;5.38;;;;;;;25.06;73.15;97558.84;5011937;28;20516;-79
2021/09/09 09:27:21;;;;;;;17.63;6.10;;;;;;;25.45;74.45;97560.41;5011371;28;20074;-79
2021/09/09 09:30:02;;;;;;;14.68;5.35;;;;;;;25.18;68.86;97558.34;5011765;28;20042;-78
2021/09/09 09:32:28;;;;;;;12.45;5.95;;;;;;;25.50;71.75;97569.06;4993702;28;20508;-79
2021/09/09 09:35:12;;;;;;;14.88;5.88;;;;;;;25.27;63.37;97566.94;5011985;28;20514;-80
2021/09/09 09:37:59;;;;;;;11.57;5.53;;;;;;;25.00;60.36;97557.75;5015397;28;20042;-78
2021/09/09 09:40:29;;;;;;;13.25;5.47;;;;;;;25.37;61.08;97565.22;5011276;28;20379;-78
2021/09/09 09:43:05;;;;;;;9.35;5.47;;;;;;;25.76;64.14;97559.22;5007493;28;20116;-77
2021/09/09 09:45:31;;;;;;;9.82;5.55;;;;;;;26.08;66.40;97561.56;5010446;28;20149;-80
2021/09/09 09:47:58;;;;;;;9.98;5.20;;;;;;;26.36;62.37;97561.94;4993506;28;20137;-78
2021/09/09 09:50:25;;;;;;;12.43;5.60;;;;;;;26.59;57.05;97553.63;5012079;28;20065;-78
2021/09/09 09:53:17;;;;;;;15.18;5.13;;;;;;;27.29;52.44;97552.78;5012395;28;20042;-78
2021/09/09 09:55:46;;;;;;;9.43;5.30;;;;;;;26.94;56.02;97549.50;5015609;28;20057;-79
2021/09/09 09:58:14;;;;;;;18.23;5.60;;;;;;;27.02;54.62;97556.47;5016454;28;20034;-80
2021/09/09 10:00:41;;;;;;;14.82;5.10;;;;;;;26.58;54.89;97551.28;5016166;28;20049;-80
2021/09/09 10:03:08;;;;;;;11.73;5.15;;;;;;;27.30;53.28;97554.38;5013638;28;20413;-79
2021/09/09 10:05:39;;;;;;;9.65;4.75;;;;;;;27.34;51.94;97547.53;4996191;28;20049;-80
2021/09/09 10:08:08;;;;;;;10.30;5.57;;;;;;;27.67;50.27;97548.47;5012313;28;20675;-80
2021/09/09 10:10:35;;;;;;;11.90;5.00;;;;;;;28.80;47.29;97535.50;5016859;28;20066;-80
2021/09/09 10:13:02;;;;;;;11.25;5.13;;;;;;;29.35;43.62;97534.41;5015911;28;20045;-81
2021/09/09 10:15:34;;;;;;;12.30;5.00;;;;;;;30.11;46.39;97540.97;5015244;28;20527;-80
2021/09/09 10:18:02;;;;;;;11.93;4.93;;;;;;;31.81;42.48;97535.91;5018247;28;20042;-79
2021/09/09 10:20:41;;;;;;;7.70;4.97;;;;;;;32.88;39.10;97515.59;4998491;28;20052;-81
2021/09/09 10:23:13;;;;;;;8.63;4.82;;;;;;;33.67;36.80;97522.94;4997825;28;20053;-80
2021/09/09 10:25:49;;;;;;;9.15;4.70;;;;;;;34.10;36.76;97522.50;5014069;28;20137;-80
2021/09/09 10:28:39;;;;;;;11.95;5.22;;;;;;;33.82;35.33;97526.63;4996115;28;20221;-81
2021/09/09 10:31:09;;;;;;;9.27;5.00;;;;;;;33.03;35.89;97524.97;5012856;28;20050;-80
2021/09/09 10:33:40;;;;;;;12.02;5.13;;;;;;;33.93;33.57;97521.31;5013309;28;20100;-80
2021/09/09 10:36:40;;;;;;;7.75;5.22;;;;;;;35.41;32.08;97519.50;5014480;28;20041;-78
2021/09/09 10:39:13;;;;;;;9.23;5.07;;;;;;;36.40;32.11;97510.47;5013420;28;20033;-79
2021/09/09 10:41:40;;;;;;;6.78;4.80;;;;;;;36.08;33.25;97510.22;5011658;28;20054;-79
2021/09/09 10:44:08;;;;;;;10.52;4.75;;;;;;;36.59;31.57;97515.41;5012390;28;20052;-79
2021/09/09 10:46:38;;;;;;;10.02;4.80;;;;;;;35.38;32.48;97506.41;5012227;28;20052;-78
2021/09/09 10:49:10;;;;;;;6.03;4.78;;;;;;;35.92;30.48;97493.03;5011871;28;20038;-79
2021/09/09 10:51:36;;;;;;;9.48;4.47;;;;;;;37.20;30.52;97496.44;5011097;28;20086;-78
2021/09/09 10:54:03;;;;;;;8.93;5.00;;;;;;;35.64;31.76;97486.94;5011960;28;20092;-78
2021/09/09 10:56:35;;;;;;;13.02;4.80;;;;;;;36.49;30.33;97494.25;5012169;28;20111;-80
2021/09/09 10:59:12;;;;;;;8.93;4.95;;;;;;;34.63;32.64;97488.22;5011426;28;20052;-80
2021/09/09 11:01:46;;;;;;;10.15;5.70;;;;;;;35.21;32.02;97487.63;5012115;28;20064;-78
2021/09/09 11:04:34;;;;;;;6.40;4.80;;;;;;;37.13;30.88;97493.28;5002860;28;20076;-80
2021/09/09 11:07:02;;;;;;;8.75;4.47;;;;;;;36.72;31.09;97498.91;5013048;28;20045;-77
2021/09/09 11:09:30;;;;;;;8.70;5.40;;;;;;;37.17;29.81;97488.16;5016149;28;20589;-80
2021/09/09 11:11:58;;;;;;;11.85;5.40;;;;;;;33.35;33.53;97470.25;5011945;28;20046;-80
2021/09/09 11:14:25;;;;;;;10.18;4.32;;;;;;;35.81;32.03;97484.41;5012483;28;20042;-76
2021/09/09 11:16:52;;;;;;;9.13;4.60;;;;;;;34.45;32.51;97484.25;5013277;28;20026;-81
2021/09/09 11:19:22;;;;;;;13.40;5.18;;;;;;;35.91;31.66;97471.75;5029724;28;20081;-80